Time;durP1;ratioP1;P1;durP2;ratioP2;P2;SDS_P1;SDS_P2;PMS_P1;PMS_P2;Temp;Humidity;BMP_temperature;BMP_pressure;BME280_temperature;BME280_humidity;BME280_pressure;Samples;Min_cycle;Max_cycle;Signal;HPM_P1;HPM_P2
2022/05/02 00:00:30;;;;;;;4.00;1.98;;;;;;;9.99;62.53;102268.13;4973042;28;100783;-35
2022/05/02 00:02:55;;;;;;;3.08;1.90;;;;;;;10.01;62.37;102268.97;4974499;28;99304;-35
2022/05/02 00:05:21;;;;;;;3.80;2.10;;;;;;;9.98;62.25;102272.63;4974850;28;96576;-35
2022/05/02 00:07:47;;;;;;;3.35;1.90;;;;;;;10.00;62.12;102278.00;4974437;28;96809;-35
2022/05/02 00:10:13;;;;;;;4.05;1.63;;;;;;;9.96;62.66;102271.84;4972082;28;100918;-35
2022/05/02 00:12:39;;;;;;;1.60;1.17;;;;;;;9.91;62.84;102264.78;4973416;28;99389;-34
2022/05/02 00:15:06;;;;;;;4.25;2.25;;;;;;;9.95;62.75;102272.75;4972738;28;96637;-35
2022/05/02 00:20:16;;;;;;;3.50;1.88;;;;;;;9.85;62.27;102270.44;4974252;28;97072;-35
2022/05/02 00:22:41;;;;;;;3.83;2.25;;;;;;;9.89;62.67;102277.50;4973850;28;99483;-35
2022/05/02 00:25:08;;;;;;;4.07;2.17;;;;;;;9.88;63.05;102275.75;4974203;28;96477;-35
2022/05/02 00:27:33;;;;;;;7.85;2.30;;;;;;;9.86;62.78;102269.50;4972889;28;96693;-35
2022/05/02 00:29:58;;;;;;;3.70;2.03;;;;;;;9.86;62.85;102270.38;4973007;28;125538;-35
2022/05/02 00:32:24;;;;;;;4.25;2.20;;;;;;;9.83;62.22;102256.09;4973973;28;97744;-35
2022/05/02 00:34:49;;;;;;;2.75;2.00;;;;;;;9.83;62.19;102267.78;4973244;28;96631;-35
2022/05/02 00:37:15;;;;;;;3.83;2.40;;;;;;;9.80;62.29;102251.66;4972990;28;122577;-35
2022/05/02 00:39:41;;;;;;;2.92;1.50;;;;;;;9.80;62.71;102262.50;4972350;28;100847;-35
2022/05/02 00:42:06;;;;;;;3.10;1.83;;;;;;;9.74;62.26;102251.88;4973677;28;98259;-35
2022/05/02 00:44:31;;;;;;;4.05;2.03;;;;;;;9.74;62.47;102247.34;4973688;28;96580;-34
2022/05/02 00:46:57;;;;;;;4.55;2.17;;;;;;;9.79;62.09;102255.28;4972917;28;121980;-35
2022/05/02 00:49:22;;;;;;;3.55;2.08;;;;;;;9.79;62.50;102256.16;4973511;28;103719;-34
2022/05/02 00:51:47;;;;;;;3.38;2.15;;;;;;;9.74;62.52;102249.16;4973428;28;115032;-35
2022/05/02 00:54:12;;;;;;;5.72;2.22;;;;;;;9.67;63.30;102237.66;4972747;28;122756;-35
2022/05/02 00:56:38;;;;;;;6.38;2.08;;;;;;;9.70;63.08;102239.38;4972866;28;112201;-35
2022/05/02 00:59:04;;;;;;;3.15;1.95;;;;;;;9.68;62.86;102250.28;4973280;28;97448;-35
2022/05/02 01:01:30;;;;;;;5.75;2.25;;;;;;;9.66;62.87;102246.72;4973483;28;97902;-35
2022/05/02 01:03:56;;;;;;;3.53;2.30;;;;;;;9.67;62.60;102251.19;4972125;28;96804;-35
2022/05/02 01:09:06;;;;;;;4.10;2.10;;;;;;;9.57;63.85;102230.81;4973151;28;97147;-35
2022/05/02 01:11:31;;;;;;;4.95;2.65;;;;;;;9.51;62.62;102229.22;4973002;28;98971;-35
2022/05/02 01:13:57;;;;;;;4.07;2.58;;;;;;;9.54;63.20;102233.66;4972306;28;121829;-35
2022/05/02 01:16:26;;;;;;;3.40;2.13;;;;;;;9.60;63.30;102241.53;4973708;28;96811;-35
2022/05/02 01:18:54;;;;;;;3.15;2.03;;;;;;;9.54;63.39;102231.81;4971739;28;101265;-35
2022/05/02 01:21:22;;;;;;;3.63;1.88;;;;;;;9.60;63.40;102244.22;4973049;28;97816;-35
2022/05/02 01:23:52;;;;;;;3.25;1.48;;;;;;;9.56;63.25;102229.06;4971093;28;96903;-35
2022/05/02 01:26:17;;;;;;;2.33;1.67;;;;;;;9.52;63.49;102225.56;4971918;28;96732;-35
2022/05/02 01:28:45;;;;;;;3.33;2.05;;;;;;;9.50;63.87;102226.56;4973001;28;99348;-35
2022/05/02 01:31:11;;;;;;;4.00;2.28;;;;;;;9.48;64.09;102228.44;4971487;28;100768;-35
2022/05/02 01:33:36;;;;;;;3.65;2.53;;;;;;;9.54;63.17;102230.94;4973051;28;96465;-35
2022/05/02 01:36:03;;;;;;;3.25;1.90;;;;;;;9.53;64.33;102237.28;4973081;28;96766;-35
2022/05/02 01:38:28;;;;;;;4.50;2.80;;;;;;;9.48;64.10;102228.44;4971341;28;101939;-35
2022/05/02 01:40:53;;;;;;;4.05;2.33;;;;;;;9.46;63.82;102233.00;4972964;28;103898;-35
2022/05/02 01:43:19;;;;;;;3.33;1.98;;;;;;;9.46;64.10;102224.91;4971910;28;122489;-35
2022/05/02 01:45:44;;;;;;;4.43;2.45;;;;;;;9.35;63.46;102212.63;4972807;28;98848;-35
2022/05/02 01:48:09;;;;;;;4.40;2.58;;;;;;;9.46;64.16;102225.81;4971307;28;126485;-35
2022/05/02 01:50:35;;;;;;;6.95;2.83;;;;;;;9.36;63.92;102222.50;4973055;28;97245;-35
2022/05/02 01:53:00;;;;;;;4.25;2.40;;;;;;;9.34;63.98;102209.97;4971813;28;121505;-35
2022/05/02 01:55:25;;;;;;;5.95;2.47;;;;;;;9.31;65.17;102215.50;4971990;28;122261;-35
2022/05/02 01:57:51;;;;;;;5.03;2.47;;;;;;;9.32;63.78;102214.59;4971726;28;125440;-35
2022/05/02 02:00:16;;;;;;;3.72;2.22;;;;;;;9.31;64.37;102213.66;4972469;28;98282;-35
2022/05/02 02:02:41;;;;;;;5.63;1.88;;;;;;;9.30;64.79;102208.34;4972840;28;96707;-35
2022/05/02 02:07:53;;;;;;;3.83;2.30;;;;;;;9.21;64.84;102209.53;4972481;28;97078;-35
2022/05/02 02:10:19;;;;;;;8.52;2.60;;;;;;;9.28;65.21;102213.78;4971626;28;122076;-35
2022/05/02 02:12:44;;;;;;;4.05;2.17;;;;;;;9.25;64.86;102219.31;4971387;28;96767;-35
2022/05/02 02:15:14;;;;;;;4.65;2.47;;;;;;;9.16;65.26;102200.69;4971497;28;122870;-35
2022/05/02 02:17:40;;;;;;;5.43;2.92;;;;;;;9.14;65.82;102208.84;4970323;28;100729;-35
2022/05/02 02:20:06;;;;;;;4.10;2.42;;;;;;;9.13;65.31;102201.69;4972307;28;97333;-35
2022/05/02 02:22:31;;;;;;;4.45;2.72;;;;;;;9.11;65.34;102206.25;4970956;28;96677;-35
2022/05/02 02:24:57;;;;;;;4.85;2.80;;;;;;;9.08;64.99;102203.66;4971782;28;117934;-35
2022/05/02 02:27:22;;;;;;;3.40;2.08;;;;;;;9.10;65.60;102209.88;4971955;28;110609;-34
2022/05/02 02:29:47;;;;;;;3.88;2.03;;;;;;;9.06;65.13;102207.34;4972785;28;97284;-35
2022/05/02 02:32:13;;;;;;;5.38;2.38;;;;;;;9.04;65.35;102198.41;4971458;28;120776;-35
2022/05/02 02:34:38;;;;;;;10.10;2.15;;;;;;;9.03;65.61;102208.31;4972303;28;96876;-35
2022/05/02 02:37:04;;;;;;;3.35;2.08;;;;;;;8.99;65.00;102209.38;4971060;28;116731;-35
2022/05/02 02:39:29;;;;;;;4.93;2.45;;;;;;;8.98;66.03;102212.97;4972307;28;97275;-35
2022/05/02 02:41:54;;;;;;;5.40;2.55;;;;;;;8.97;66.36;102215.75;4972260;28;96752;-35
2022/05/02 02:44:19;;;;;;;5.60;2.67;;;;;;;8.96;65.63;102208.56;4972015;28;96800;-35
2022/05/02 02:46:45;;;;;;;4.22;2.10;;;;;;;8.86;66.20;102203.47;4970996;28;127301;-34
2022/05/02 02:49:10;;;;;;;5.53;2.85;;;;;;;8.89;65.89;102207.88;4970929;28;122455;-35
2022/05/02 02:51:35;;;;;;;3.22;2.22;;;;;;;8.88;65.71;102208.81;4971183;28;122339;-35
2022/05/02 02:54:00;;;;;;;7.57;2.88;;;;;;;8.77;66.51;102192.06;4971474;28;121544;-35
2022/05/02 02:56:26;;;;;;;3.53;2.25;;;;;;;8.84;65.82;102205.34;4971083;28;125444;-34
2022/05/02 02:58:51;;;;;;;3.67;2.00;;;;;;;8.82;66.26;102201.81;4971304;28;126599;-35
2022/05/02 03:01:16;;;;;;;5.85;2.45;;;;;;;8.74;65.90;102187.66;4971490;28;96825;-35
2022/05/02 03:03:42;;;;;;;4.03;2.10;;;;;;;8.77;66.76;102195.69;4971875;28;96769;-35
2022/05/02 03:06:08;;;;;;;4.32;2.42;;;;;;;8.69;66.97;102190.50;4972046;28;97968;-35
2022/05/02 03:08:36;;;;;;;5.20;2.40;;;;;;;8.75;66.61;102205.66;4971817;28;97770;-35
2022/05/02 03:11:02;;;;;;;2.35;1.50;;;;;;;8.60;66.79;102182.69;4971746;28;96714;-35
2022/05/02 03:13:27;;;;;;;4.50;2.35;;;;;;;8.66;66.69;102195.13;4971754;28;96754;-35
2022/05/02 03:15:52;;;;;;;3.58;2.20;;;;;;;8.62;66.72;102193.47;4971777;28;97790;-34
2022/05/02 03:18:18;;;;;;;3.70;1.92;;;;;;;8.61;67.24;102200.69;4972003;28;99125;-35
2022/05/02 03:20:43;;;;;;;4.95;2.28;;;;;;;8.59;67.31;102204.38;4971625;28;96615;-35
2022/05/02 03:23:08;;;;;;;3.80;2.58;;;;;;;8.50;68.08;102187.50;4970533;28;122734;-34
2022/05/02 03:25:34;;;;;;;3.88;2.50;;;;;;;8.47;67.82;102184.91;4970531;28;120452;-34
2022/05/02 03:27:59;;;;;;;6.28;2.35;;;;;;;8.41;67.35;102170.72;4971473;28;99139;-35
2022/05/02 03:30:24;;;;;;;4.95;2.90;;;;;;;8.51;67.28;102191.09;4973340;28;117281;-34
2022/05/02 03:32:49;;;;;;;4.57;2.20;;;;;;;8.46;67.63;102184.94;4974026;28;120085;-35
2022/05/02 03:35:15;;;;;;;3.42;2.25;;;;;;;8.49;67.18;102199.25;4974269;28;126846;-34
2022/05/02 03:37:40;;;;;;;6.03;2.35;;;;;;;8.43;68.26;102190.44;4974935;28;97784;-34
2022/05/02 03:40:07;;;;;;;4.22;2.42;;;;;;;8.38;67.31;102176.19;4974033;28;121892;-35
2022/05/02 03:42:33;;;;;;;3.10;1.95;;;;;;;8.38;67.88;102190.56;4973678;28;96580;-34
2022/05/02 03:44:58;;;;;;;3.78;2.17;;;;;;;8.35;68.20;102187.97;4975125;28;97416;-34
2022/05/02 03:47:23;;;;;;;3.55;2.40;;;;;;;8.30;67.90;102180.00;4974760;28;96945;-35
2022/05/02 03:49:49;;;;;;;4.60;2.28;;;;;;;8.33;68.57;102192.50;4973843;28;99636;-34
2022/05/02 03:52:14;;;;;;;3.67;2.00;;;;;;;8.23;67.96;102181.13;4974822;28;96750;-34
2022/05/02 03:54:40;;;;;;;4.22;2.58;;;;;;;8.21;68.50;102182.09;4974599;28;97583;-35
2022/05/02 03:57:05;;;;;;;6.40;2.50;;;;;;;8.26;68.00;102193.63;4973070;28;101128;-35
2022/05/02 03:59:31;;;;;;;3.63;2.30;;;;;;;8.26;68.01;102204.44;4974397;28;96513;-35
2022/05/02 04:01:56;;;;;;;3.00;1.95;;;;;;;8.16;67.91;102189.44;4973756;28;109623;-34
2022/05/02 04:04:21;;;;;;;3.72;1.98;;;;;;;8.17;68.23;102193.91;4974092;28;106838;-34
2022/05/02 04:06:48;;;;;;;2.50;1.83;;;;;;;8.07;67.74;102183.38;4973162;28;101188;-34
2022/05/02 04:09:13;;;;;;;3.33;1.92;;;;;;;8.00;68.24;102178.22;4974114;28;96570;-35
2022/05/02 04:11:38;;;;;;;5.18;2.80;;;;;;;8.00;68.24;102187.19;4973759;28;112024;-35
2022/05/02 04:14:04;;;;;;;4.70;2.70;;;;;;;7.98;69.00;102188.16;4972575;28;108525;-34
2022/05/02 04:16:29;;;;;;;5.32;2.30;;;;;;;7.98;68.75;102194.44;4973542;28;119874;-35
2022/05/02 04:18:54;;;;;;;2.97;1.88;;;;;;;7.94;68.99;102187.38;4974132;28;96537;-34
2022/05/02 04:21:20;;;;;;;2.83;2.05;;;;;;;7.93;69.23;102193.69;4974028;28;99317;-35
2022/05/02 04:23:45;;;;;;;3.00;1.83;;;;;;;8.00;69.15;102199.81;4974078;28;97914;-35
2022/05/02 04:26:10;;;;;;;3.88;2.25;;;;;;;7.91;69.40;102189.28;4973077;28;126764;-34
2022/05/02 04:28:36;;;;;;;3.70;2.15;;;;;;;7.95;67.91;102201.75;4973971;28;96642;-35
2022/05/02 04:31:01;;;;;;;3.78;2.30;;;;;;;7.87;68.79;102191.19;4974155;28;96797;-35
2022/05/02 04:33:26;;;;;;;6.15;2.88;;;;;;;7.90;68.28;102212.66;4974031;28;97912;-34
2022/05/02 04:35:53;;;;;;;3.72;2.30;;;;;;;7.92;69.17;102202.72;4973193;28;121900;-35
2022/05/02 04:38:18;;;;;;;3.95;1.83;;;;;;;7.90;69.41;102203.69;4972039;28;96961;-34
2022/05/02 04:40:43;;;;;;;3.65;2.33;;;;;;;7.93;69.01;102206.31;4972976;28;96846;-34
2022/05/02 04:43:09;;;;;;;5.75;2.03;;;;;;;7.93;69.30;102215.28;4972698;28;119957;-34
2022/05/02 04:45:34;;;;;;;3.22;1.95;;;;;;;7.91;69.11;102209.03;4973410;28;98609;-34
2022/05/02 04:47:59;;;;;;;3.15;2.10;;;;;;;7.96;70.19;102217.00;4973366;28;96729;-34
2022/05/02 04:50:25;;;;;;;3.38;2.30;;;;;;;7.92;68.55;102213.50;4972795;28;120540;-34
2022/05/02 04:52:50;;;;;;;4.47;2.92;;;;;;;7.89;70.04;102200.13;4973392;28;99238;-35
2022/05/02 04:55:15;;;;;;;8.10;2.55;;;;;;;7.96;68.45;102201.72;4973788;28;98844;-34
2022/05/02 04:57:41;;;;;;;4.88;2.60;;;;;;;7.99;68.25;102200.75;4973855;28;96574;-34
2022/05/02 05:00:07;;;;;;;4.07;2.28;;;;;;;7.98;68.47;102197.13;4973576;28;98173;-34
2022/05/02 05:02:33;;;;;;;3.92;2.25;;;;;;;8.00;69.01;102200.69;4972628;28;99372;-34
2022/05/02 05:04:58;;;;;;;5.47;2.90;;;;;;;8.10;67.96;102212.09;4973221;28;99386;-34
2022/05/02 05:07:24;;;;;;;4.18;2.78;;;;;;;8.05;67.02;102204.13;4973293;28;96534;-34
2022/05/02 05:09:49;;;;;;;6.28;2.75;;;;;;;8.13;68.28;102214.72;4973523;28;96751;-34
2022/05/02 05:12:40;;;;;;;5.55;3.22;;;;;;;8.17;68.05;102212.78;4972075;28;118362;-35
2022/05/02 05:18:20;;;;;;;3.45;2.35;;;;;;;8.23;67.74;102212.63;4971168;28;96691;-34
2022/05/02 05:20:54;;;;;;;4.25;2.50;;;;;;;8.30;67.58;102216.91;4972422;28;96652;-34
2022/05/02 05:23:51;;;;;;;4.28;2.45;;;;;;;8.34;68.47;102215.00;4971354;28;100952;-35
2022/05/02 05:26:42;;;;;;;2.50;1.83;;;;;;;8.38;67.33;102212.16;4973260;28;97813;-34
2022/05/02 05:29:16;;;;;;;4.45;2.60;;;;;;;8.44;67.10;102209.31;4972590;28;96456;-34
2022/05/02 05:31:52;;;;;;;3.53;2.33;;;;;;;8.50;67.30;102214.50;4973196;28;96742;-34
2022/05/02 05:34:38;;;;;;;5.20;2.65;;;;;;;8.54;66.66;102209.03;4971555;28;101018;-34
2022/05/02 05:37:26;;;;;;;5.72;2.58;;;;;;;8.64;66.81;102213.19;4971575;28;99170;-34
2022/05/02 05:40:14;;;;;;;3.60;2.35;;;;;;;8.69;66.61;102214.81;4972827;28;96684;-34
2022/05/02 05:43:17;;;;;;;4.05;2.40;;;;;;;8.81;66.36;102216.25;4972852;28;96612;-34
2022/05/02 05:46:15;;;;;;;4.68;2.63;;;;;;;8.84;65.69;102213.47;4972685;28;99436;-34
2022/05/02 05:49:02;;;;;;;4.80;2.67;;;;;;;8.88;65.58;102203.41;4972968;28;99336;-34
2022/05/02 05:51:35;;;;;;;5.50;2.78;;;;;;;8.98;65.56;102214.81;4971406;28;96636;-34
2022/05/02 05:54:36;;;;;;;4.18;2.47;;;;;;;9.08;65.93;102208.16;4970386;28;96749;-34
2022/05/02 05:57:28;;;;;;;8.90;3.97;;;;;;;9.13;65.41;102212.50;4972427;28;97919;-34
2022/05/02 06:00:08;;;;;;;7.43;4.40;;;;;;;9.28;64.85;102219.19;4971258;28;100820;-34
2022/05/02 06:02:49;;;;;;;7.07;4.30;;;;;;;9.42;64.48;102218.72;4972776;28;96577;-34
2022/05/02 06:05:16;;;;;;;6.03;3.58;;;;;;;9.50;64.60;102219.31;4972616;28;96633;-35
2022/05/02 06:07:43;;;;;;;5.68;3.35;;;;;;;9.57;64.40;102217.28;4971005;28;101130;-34
2022/05/02 06:10:09;;;;;;;7.22;3.17;;;;;;;9.61;63.89;102209.97;4970731;28;101285;-35
2022/05/02 06:12:36;;;;;;;8.38;3.00;;;;;;;9.66;63.86;102203.44;4970599;28;96792;-34
2022/05/02 06:20:35;;;;;;;6.03;3.38;;;;;;;10.00;63.23;102204.91;4971824;28;96994;-34
2022/05/02 06:23:01;;;;;;;6.40;3.30;;;;;;;10.13;62.98;102217.06;4970321;28;97380;-35
2022/05/02 06:25:32;;;;;;;8.15;3.95;;;;;;;10.31;62.83;102220.91;4971120;28;96776;-34
2022/05/02 06:28:01;;;;;;;7.85;4.03;;;;;;;10.39;62.57;102213.38;4972215;28;97837;-34
2022/05/02 06:30:29;;;;;;;6.00;3.33;;;;;;;10.50;62.46;102212.94;4970747;28;101117;-35
2022/05/02 06:32:58;;;;;;;4.97;2.97;;;;;;;10.59;62.20;102209.00;4970921;28;96466;-34
2022/05/02 06:35:31;;;;;;;6.00;3.17;;;;;;;10.78;61.78;102223.59;4970883;28;96854;-34
2022/05/02 06:38:13;;;;;;;10.27;4.03;;;;;;;10.92;62.41;102222.16;4972226;28;98043;-34
2022/05/02 06:41:18;;;;;;;6.33;3.47;;;;;;;11.08;62.07;102223.25;4971555;28;97959;-35
2022/05/02 06:44:13;;;;;;;7.95;3.78;;;;;;;11.23;61.59;102222.63;4969203;28;96821;-34
2022/05/02 06:47:10;;;;;;;6.57;3.55;;;;;;;11.38;60.96;102222.94;4970567;28;96969;-34
2022/05/02 06:49:39;;;;;;;5.82;3.80;;;;;;;11.44;60.33;102199.13;4970695;28;97503;-35
2022/05/02 06:52:10;;;;;;;7.07;3.55;;;;;;;11.65;60.49;102213.56;4971914;28;97409;-34
2022/05/02 06:54:54;;;;;;;6.43;3.53;;;;;;;11.80;60.12;102212.03;4972389;28;96658;-34
2022/05/02 06:57:38;;;;;;;7.70;3.65;;;;;;;11.97;60.16;102219.44;4972301;28;96587;-34
2022/05/02 07:00:07;;;;;;;6.18;4.05;;;;;;;12.09;59.22;102208.00;4972115;28;97557;-34
2022/05/02 07:03:06;;;;;;;6.63;3.35;;;;;;;12.27;58.95;102218.97;4970459;28;99657;-34
2022/05/02 07:05:49;;;;;;;4.75;2.75;;;;;;;12.50;58.41;102212.47;4973404;28;96697;-35
2022/05/02 07:08:42;;;;;;;8.13;3.33;;;;;;;12.65;58.15;102214.41;4975411;28;97231;-35
2022/05/02 07:11:18;;;;;;;;;;;;;;;12.77;57.41;102212.06;4975434;28;98873;-34
2022/05/02 07:14:06;;;;;;;5.18;2.70;;;;;;;12.91;57.44;102215.00;4974465;28;97657;-34
2022/05/02 07:16:36;;;;;;;5.78;3.50;;;;;;;13.09;57.07;102205.94;4975078;28;96664;-34
2022/05/02 07:19:20;;;;;;;6.80;3.60;;;;;;;13.27;56.47;102220.44;4973716;28;96937;-35
2022/05/02 07:21:55;;;;;;;8.70;3.92;;;;;;;13.39;56.39;102210.78;4957474;28;101238;-34
2022/05/02 07:24:39;;;;;;;4.35;2.90;;;;;;;13.53;55.45;102210.06;4973650;28;100812;-34
2022/05/02 07:27:23;;;;;;;5.88;3.35;;;;;;;13.70;55.65;102211.91;4974919;28;96623;-34
2022/05/02 07:29:51;;;;;;;4.82;2.72;;;;;;;13.86;55.41;102206.53;4975335;28;96708;-34
2022/05/02 07:32:21;;;;;;;8.32;3.80;;;;;;;13.97;55.15;102201.41;4973405;28;100939;-34
2022/05/02 07:34:48;;;;;;;8.88;3.78;;;;;;;14.09;54.74;102202.56;4974922;28;99070;-35
2022/05/02 07:37:15;;;;;;;7.60;3.53;;;;;;;14.14;54.65;102193.19;4973446;28;96708;-34
2022/05/02 07:39:42;;;;;;;7.30;3.47;;;;;;;14.33;54.02;102203.06;4973539;28;96842;-35
2022/05/02 07:42:10;;;;;;;5.88;3.03;;;;;;;14.53;53.84;102207.38;4974245;28;98040;-35
2022/05/02 07:44:38;;;;;;;5.18;3.28;;;;;;;14.57;53.56;102203.56;4973228;28;100879;-35
2022/05/02 07:47:07;;;;;;;6.88;3.58;;;;;;;14.70;53.39;102212.78;4973170;28;96785;-35
2022/05/02 07:49:34;;;;;;;7.20;3.33;;;;;;;14.69;52.27;102205.59;4973444;28;96842;-35
2022/05/02 07:52:01;;;;;;;7.50;3.88;;;;;;;14.73;53.21;102192.63;4973039;28;100807;-35
2022/05/02 07:54:35;;;;;;;9.38;3.75;;;;;;;14.96;51.76;102210.41;4974457;28;97794;-34
2022/05/02 07:57:03;;;;;;;6.65;3.38;;;;;;;15.02;51.96;102202.75;4973300;28;96674;-35
2022/05/02 07:59:42;;;;;;;9.48;4.45;;;;;;;15.20;51.41;102198.03;4974685;28;96766;-34
2022/05/02 08:02:08;;;;;;;8.10;3.83;;;;;;;15.34;50.94;102199.09;4973090;28;101040;-34
2022/05/02 08:04:37;;;;;;;8.68;3.67;;;;;;;15.32;51.21;102201.03;4972820;28;100842;-34
2022/05/02 08:07:36;;;;;;;6.53;3.60;;;;;;;15.48;49.67;102215.50;4972333;28;97408;-35
2022/05/02 08:10:44;;;;;;;6.82;3.38;;;;;;;15.61;49.42;102211.09;4973817;28;96901;-35
2022/05/02 08:13:37;;;;;;;7.70;3.60;;;;;;;15.80;49.63;102212.69;4973866;28;97581;-35
2022/05/02 08:16:05;;;;;;;6.40;3.13;;;;;;;15.86;49.02;102209.59;4971657;28;100795;-34
2022/05/02 08:18:46;;;;;;;5.35;2.95;;;;;;;16.05;48.61;102212.06;4974181;28;96548;-34
2022/05/02 08:21:22;;;;;;;8.50;3.85;;;;;;;16.21;48.48;102211.94;4985720;28;96719;-34
2022/05/02 08:27:37;;;;;;;9.05;3.53;;;;;;;16.52;46.81;102217.22;4991823;28;96526;-35
2022/05/02 08:30:23;;;;;;;8.98;4.20;;;;;;;16.55;46.71;102210.69;4994101;28;96502;-34
2022/05/02 08:33:07;;;;;;;8.35;4.20;;;;;;;16.62;48.66;102211.16;4993892;28;96688;-35
2022/05/02 08:35:56;;;;;;;5.45;3.72;;;;;;;16.77;47.45;102216.47;4991903;28;100711;-35
2022/05/02 08:38:43;;;;;;;5.97;3.20;;;;;;;16.87;47.21;102214.03;4992250;28;101012;-35
2022/05/02 08:41:08;;;;;;;8.10;3.65;;;;;;;17.07;47.65;102206.41;4993707;28;96763;-35
2022/05/02 08:44:04;;;;;;;7.53;4.17;;;;;;;17.18;45.48;102204.69;4993393;28;109398;-35
2022/05/02 08:47:12;;;;;;;5.60;2.83;;;;;;;17.08;43.25;102202.66;4975635;28;101089;-34
2022/05/02 08:50:09;;;;;;;6.90;3.08;;;;;;;17.10;44.87;102207.03;4991911;28;97969;-35
2022/05/02 08:53:02;;;;;;;6.43;2.92;;;;;;;17.21;45.47;102214.56;4993755;28;96430;-35
2022/05/02 08:55:46;;;;;;;5.88;2.95;;;;;;;17.50;44.43;102208.94;4993983;28;96654;-34
2022/05/02 08:58:21;;;;;;;6.13;3.30;;;;;;;17.47;44.52;102195.44;4991882;28;101064;-35
2022/05/02 09:01:29;;;;;;;7.63;3.33;;;;;;;17.44;45.65;102206.59;4991347;28;123428;-34
2022/05/02 09:04:41;;;;;;;5.20;3.22;;;;;;;17.63;44.77;102197.00;4992895;28;96571;-35
2022/05/02 09:07:40;;;;;;;8.50;3.97;;;;;;;17.82;44.22;102201.22;4991191;28;96993;-35
2022/05/02 09:10:10;;;;;;;6.78;3.35;;;;;;;17.94;43.80;102200.34;4991084;28;97497;-35
2022/05/02 09:12:50;;;;;;;7.07;3.80;;;;;;;18.04;42.72;102201.47;4991246;28;97933;-35
2022/05/02 09:15:46;;;;;;;5.90;2.95;;;;;;;18.15;40.72;102195.19;4991869;28;96591;-35
2022/05/02 09:18:49;;;;;;;4.85;2.60;;;;;;;18.29;41.79;102185.09;4991784;28;97501;-34
2022/05/02 09:21:26;;;;;;;5.78;3.00;;;;;;;18.40;43.32;102188.81;4993020;28;99475;-35
2022/05/02 09:24:10;;;;;;;5.70;3.28;;;;;;;18.43;41.46;102190.47;4993408;28;97842;-35
2022/05/02 09:26:47;;;;;;;5.40;3.08;;;;;;;18.56;41.78;102188.53;4992744;28;96566;-35
2022/05/02 09:29:31;;;;;;;7.38;3.17;;;;;;;18.75;41.63;102192.66;4992906;28;96848;-35
2022/05/02 09:32:07;;;;;;;10.13;3.40;;;;;;;18.82;41.20;102167.41;4992473;28;97651;-35
2022/05/02 09:34:37;;;;;;;4.82;2.83;;;;;;;19.06;42.77;102180.28;4993051;28;97833;-35
2022/05/02 09:37:22;;;;;;;6.75;3.35;;;;;;;19.06;39.51;102158.31;4991754;28;96685;-35
2022/05/02 09:40:07;;;;;;;6.85;3.22;;;;;;;19.06;40.30;102175.66;4992879;28;96789;-35
2022/05/02 09:43:03;;;;;;;7.22;2.83;;;;;;;19.10;41.25;102181.81;4991306;28;101505;-35
2022/05/02 09:52:02;;;;;;;5.80;2.80;;;;;;;19.44;39.73;102185.56;4992113;28;96705;-35
2022/05/02 09:57:33;;;;;;;4.93;2.70;;;;;;;19.40;39.04;102178.56;4971033;28;97122;-35
2022/05/02 10:02:50;;;;;;;4.82;2.80;;;;;;;19.62;39.87;102183.25;4973203;28;96566;-35
2022/05/02 10:05:25;;;;;;;7.53;3.10;;;;;;;19.78;37.52;102179.31;4972383;28;99158;-35
2022/05/02 10:08:05;;;;;;;6.40;2.67;;;;;;;19.87;37.60;102171.22;4970769;28;100950;-35
2022/05/02 10:10:39;;;;;;;5.18;3.08;;;;;;;19.93;38.92;102167.97;4971042;28;96594;-35
2022/05/02 10:13:26;;;;;;;5.78;3.05;;;;;;;20.06;37.02;102172.50;4972165;28;96738;-35
2022/05/02 10:16:05;;;;;;;5.95;3.75;;;;;;;20.06;38.68;102165.09;4970988;28;99248;-35
2022/05/02 10:18:51;;;;;;;6.00;3.38;;;;;;;20.05;35.30;102168.00;4971472;28;100673;-35
2022/05/02 10:21:33;;;;;;;5.78;2.65;;;;;;;19.83;37.93;102150.47;4972188;28;96673;-35
2022/05/02 10:24:14;;;;;;;7.45;3.13;;;;;;;20.03;37.47;102159.00;4972264;28;96664;-34
2022/05/02 10:26:49;;;;;;;5.60;2.97;;;;;;;20.04;38.30;102163.47;4970545;28;101079;-35
2022/05/02 10:29:38;;;;;;;5.03;3.15;;;;;;;20.06;36.77;102158.72;4972407;28;97296;-34
2022/05/02 10:32:08;;;;;;;5.93;3.40;;;;;;;19.89;38.07;102155.47;4971218;28;96757;-35
2022/05/02 10:34:37;;;;;;;6.38;3.33;;;;;;;19.97;37.85;102164.97;4972512;28;96641;-35
2022/05/02 10:37:07;;;;;;;6.22;3.30;;;;;;;20.28;37.67;102155.09;4970847;28;101124;-35
2022/05/02 10:39:50;;;;;;;6.80;3.03;;;;;;;20.62;37.66;102158.75;4974266;28;100864;-35
2022/05/02 10:42:19;;;;;;;6.88;3.10;;;;;;;20.71;37.76;102154.31;4978887;28;96599;-35
2022/05/02 10:44:51;;;;;;;5.50;2.75;;;;;;;20.68;37.37;102154.59;4977612;28;96925;-35
2022/05/02 10:47:19;;;;;;;5.20;3.15;;;;;;;20.72;37.35;102143.19;4978817;28;97967;-35
2022/05/02 10:50:03;;;;;;;4.78;2.78;;;;;;;20.89;36.36;102141.75;4977045;28;100997;-35
2022/05/02 10:53:04;;;;;;;3.88;2.40;;;;;;;20.97;37.16;102149.38;4976664;28;97534;-35
2022/05/02 10:55:37;;;;;;;6.03;2.53;;;;;;;21.04;36.52;102136.81;4984721;28;97202;-35
2022/05/02 10:58:05;;;;;;;4.85;2.67;;;;;;;21.16;36.48;102141.28;4977192;28;101191;-35
2022/05/02 11:00:32;;;;;;;5.15;3.08;;;;;;;21.30;36.16;102136.47;4977152;28;101287;-35
2022/05/02 11:03:16;;;;;;;5.35;2.63;;;;;;;21.20;34.50;102139.16;4976839;28;96758;-35
2022/05/02 11:05:54;;;;;;;6.38;2.65;;;;;;;21.01;34.94;102139.84;4977138;28;96553;-35
2022/05/02 11:08:30;;;;;;;5.50;2.63;;;;;;;21.05;36.23;102134.97;4976680;28;101122;-35
2022/05/02 11:11:06;;;;;;;6.47;3.15;;;;;;;21.15;36.38;102133.16;4977130;28;100772;-35
2022/05/02 11:13:48;;;;;;;7.50;2.90;;;;;;;21.26;34.60;102138.63;4978185;28;96618;-35
2022/05/02 11:16:24;;;;;;;4.43;2.38;;;;;;;21.26;35.58;102135.88;4977091;28;96746;-35
2022/05/02 11:22:16;;;;;;;5.70;2.75;;;;;;;21.49;36.34;102127.50;4978638;28;97020;-35
2022/05/02 11:24:59;;;;;;;5.28;2.70;;;;;;;21.50;34.66;102137.50;4979809;28;97735;-35
2022/05/02 11:27:46;;;;;;;4.72;2.10;;;;;;;21.31;32.33;102121.66;4976858;28;96704;-35
2022/05/02 11:30:13;;;;;;;7.10;3.08;;;;;;;21.34;35.00;102118.66;4976692;28;100907;-35
2022/05/02 11:33:11;;;;;;;9.02;3.25;;;;;;;21.46;34.09;102116.75;4977917;28;98813;-35
2022/05/02 11:35:38;;;;;;;4.95;2.58;;;;;;;21.41;35.80;102112.50;4976766;28;96666;-35
2022/05/02 11:38:33;;;;;;;6.18;2.78;;;;;;;21.52;34.71;102116.19;4977207;28;96913;-35
2022/05/02 11:41:11;;;;;;;7.75;2.90;;;;;;;21.74;34.82;102115.19;4984959;28;99767;-35
2022/05/02 11:43:37;;;;;;;4.40;2.55;;;;;;;21.58;33.20;102111.00;4996750;28;97815;-35
2022/05/02 11:46:08;;;;;;;3.90;2.40;;;;;;;21.69;34.77;102112.84;4996494;28;96728;-35
2022/05/02 11:48:53;;;;;;;;;;;;;;;21.75;33.56;102114.16;4997043;28;96799;-35
2022/05/02 11:51:43;;;;;;;3.63;2.13;;;;;;;21.82;33.22;102107.09;4995500;28;97891;-35
2022/05/02 11:54:27;;;;;;;4.90;2.42;;;;;;;21.97;32.54;102111.22;4989916;28;100980;-35
2022/05/02 11:57:22;;;;;;;4.78;2.28;;;;;;;22.06;33.61;102107.63;4993425;28;105333;-35
2022/05/02 11:59:55;;;;;;;6.90;3.13;;;;;;;21.95;33.18;102102.22;4992674;28;96654;-35
2022/05/02 12:02:39;;;;;;;5.57;2.58;;;;;;;22.08;34.04;102101.97;4992159;28;100840;-35
2022/05/02 12:05:26;;;;;;;3.75;2.20;;;;;;;21.82;33.21;102099.69;4994144;28;97359;-35
2022/05/02 12:07:57;;;;;;;4.28;2.20;;;;;;;21.95;33.93;102102.22;4993250;28;97044;-35
2022/05/02 12:10:39;;;;;;;7.97;2.50;;;;;;;22.00;33.22;102102.69;4992515;28;96901;-35
2022/05/02 12:13:05;;;;;;;;;;;;;;;21.75;32.91;102111.41;4992192;28;101342;-35
2022/05/02 12:15:32;;;;;;;5.55;2.05;;;;;;;21.83;33.48;102089.50;4992842;28;100978;-35
2022/05/02 12:18:06;;;;;;;3.97;2.25;;;;;;;21.93;33.49;102101.50;4992529;28;96589;-35
2022/05/02 12:20:40;;;;;;;5.00;2.22;;;;;;;21.81;34.00;102097.94;4994231;28;96595;-35
2022/05/02 12:23:10;;;;;;;3.92;2.45;;;;;;;21.67;31.31;102087.28;4993944;28;97960;-35
2022/05/02 12:25:48;;;;;;;3.70;2.38;;;;;;;21.75;33.82;102089.34;4992466;28;100713;-35
2022/05/02 12:28:14;;;;;;;6.07;2.47;;;;;;;21.86;33.62;102086.50;4992688;28;96736;-35
2022/05/02 12:30:41;;;;;;;3.72;2.05;;;;;;;22.07;33.39;102091.94;4994438;28;96783;-35